To NAV CANADA Home Page Login to a new session Search on AWWS site Disclaimer Vers la page française équivalente Tips FAQ What's new on the site To the Forecasts and Observations / NOTAM section To "File a Flight Plan" website Publications and other links Update of the User's profile FIC Telephone Numbers My Weather Data Folder Route Weather Data Regional Weather Data Local Weather Data To the Forecasts and Observations / NOTAM section
Request Generated 04/12/2021 at 03:43:27 UTC . Weather information available at that time is displayed.

METAR/TAF

TORONTO/OSHAWA EXECUTIVE AIRPORT/ON    (show WxCam)

METAR CYOO 120300Z AUTO 09008KT 9SM SCT016 OVC100 13/12 A2956 RMK SLP012 DENSITY ALT 800FT=
SPECI CYOO 120221Z AUTO 06009KT 9SM FEW008 SCT025 SCT045 OVC096 13/13 A2956 RMK SLP011 DENSITY ALT 800FT=
SPECI CYOO 120203Z AUTO 07006KT 9SM -RA SCT008 SCT032 BKN045 OVC100 13/13 A2956 RMK SLP013 DENSITY ALT 800FT=
METAR CYOO 120200Z AUTO 06006KT 9SM -RA BKN008 BKN028 BKN045 OVC100 13/13 A2956 RMK SLP013 DENSITY ALT 800FT=
SPECI CYOO 120138Z AUTO 08006KT 9SM -RA BKN008 BKN022 BKN027 OVC086 13/13 A2956 RMK SLP013 DENSITY ALT 800FT=
SPECI CYOO 120134Z AUTO 06007KT 9SM -RA SCT008 BKN024 BKN042 OVC086 13/13 A2956 RMK SLP013 DENSITY ALT 800FT=
SPECI CYOO 120127Z AUTO 08009G15KT 6SM -RA BR FEW008 SCT024 SCT040 OVC086 13/13 A2956 RMK SLP013 DENSITY ALT 800FT=
METAR CYOO 120100Z AUTO 09018G23KT 050V120 5SM RA BR SCT006 SCT017 BKN043 OVC081 13/13 A2955 RMK SLP008 DENSITY ALT 900FT=
SPECI CYOO 120058Z AUTO 09015G22KT 040V120 5SM RA BR SCT006 SCT017 BKN043 OVC082 13/13 A2955 RMK PRESFR SLP008 DENSITY ALT 900FT=

TAF CYOO 120138Z 1202/1214 09015G25KT P6SM SCT006 BKN050 BKN120 TEMPO
1202/1204 5SM -SHRA BR BKN006 OVC050
FM120400 09012G22KT 2SM -RA BR OVC005 TEMPO 1204/1214 6SM -DZ BR
OVC008
RMK FCST BASED ON AUTO OBS. NXT FCST BY 120800Z=
Your time UTC time
Weather data provided by Environment Canada and NAV CANADA